Latest Coastal Weather Observations for Mallacoota

IDV60701

Issued at 2:51 pm EDT Sunday 14 February 2016 (issued every 10 minutes, with the page automatically refreshed every 10 minutes)

About coastal observations | Map of coastal stations | Coastal observations for VIC | Marine services | Other Formats
Station Details ID: 084084 Name: MALLACOOTA Lat: -37.60 Lon: 149.73 Height: 22.0 m
Data from the previous 72 hours. | See also: Recent months at Mallacoota
Date/Time
EDT
Temp

°C
Wind Pressure Rain
since 9am
mm
Weather Cloud Vis
km
Sea
Height
m
Swell
Dir
 
Speed
knots
Gust
knots
hPa Trend Height
m
Period
s
Dir
14/02:30pm 23.7 SW 11 19 1008.9 - 0.0 - - - - - - -
14/02:00pm 22.9 SSW 13 20 1008.9 - 0.0 - - - - - - -
14/01:30pm 23.3 SSW 13 21 1009.0 - 0.0 - - - - - - -
14/01:00pm 23.7 SW 12 18 1009.1 - 0.0 - - - - - - -
14/12:30pm 23.3 WSW 10 21 1009.1 - 0.0 - - - - - - -
14/12:00pm 22.3 SW 12 18 1009.1 - 0.0 - - - - - - -
14/11:30am 22.9 SW 12 18 1009.2 - 0.0 - - - - - - -
14/11:00am 22.6 SW 10 16 1009.3 - 0.0 - - - - - - -
14/10:30am 21.2 SSW 13 20 1008.9 - 0.0 - - - - - - -
14/10:00am 23.0 WSW 9 16 1008.7 - 0.0 - - - - - - -
14/09:30am 22.6 SSW 11 15 1008.7 - 0.0 - - - - - - -
14/09:00am 21.8 WSW 8 14 1008.6 - 0.0 - - - - - - -
14/08:30am 21.3 WSW 6 10 1008.5 - 0.0 - - - - - - -
14/08:00am 20.2 W 4 9 1008.3 - 0.0 - - - - - - -
14/07:30am 18.9 W 5 8 1008.2 - 0.0 - - - - - - -
14/07:00am 17.8 WNW 6 9 1007.9 - 0.0 - - - - - - -
14/06:30am 17.8 WNW 5 9 1007.6 - 0.0 - - - - - - -
14/06:00am 18.3 W 5 9 1007.2 - 0.0 - - - - - - -
14/05:30am 18.4 WNW 6 9 1007.2 - 0.0 - - - - - - -
14/05:00am 18.7 W 7 11 1006.9 - 0.0 - - - - - - -
14/04:30am 18.8 W 5 8 1006.9 - 0.0 - - - - - - -
14/04:00am 19.0 WSW 6 10 1007.0 - 0.0 - - - - - - -
14/03:30am 19.5 W 6 10 1006.8 - 0.0 - - - - - - -
14/03:00am 19.9 WSW 7 13 1006.9 - 0.0 - - - - - - -
14/02:30am 20.6 WSW 7 13 1006.8 - 0.0 - - - - - - -
14/02:00am 20.9 W 6 9 1006.8 - 0.0 - - - - - - -
14/01:30am 21.3 WSW 6 10 1006.8 - 0.0 - - - - - - -
14/01:00am 21.9 WSW 7 14 1006.7 - 0.0 - - - - - - -
14/12:30am 22.4 SW 9 14 1006.4 - 0.0 - - - - - - -
14/12:00am 24.1 W 9 15 1005.7 - 0.0 - - - - - - -
 
Date/Time
EDT
Temp

°C
Wind Pressure Rain
since 9am
mm
Weather Cloud Vis
km
Sea
Height
m
Swell
Dir
 
Speed
knots
Gust
knots
hPa Trend Height
m
Period
s
Dir
13/11:30pm 23.9 NW 8 13 1004.7 - 0.0 - - - - - - -
13/11:00pm 24.1 NNW 9 11 1004.7 - 0.0 - - - - - - -
13/10:30pm 24.3 NNW 7 11 1005.0 - 0.0 - - - - - - -
13/10:00pm 25.0 NNW 7 11 1005.5 - 0.0 - - - - - - -
13/09:30pm 25.4 N 7 10 1005.8 - 0.0 - - - - - - -
13/09:00pm 25.7 N 5 7 1005.8 - 0.0 - - - - - - -
13/08:30pm 25.5 N 5 7 1005.8 - 0.0 - - - - - - -
13/08:00pm 24.2 NNE 5 8 1005.8 - 0.0 - - - - - - -
13/07:30pm 23.6 NE 6 8 1005.8 - 0.0 - - - - - - -
13/07:00pm 24.7 NE 5 10 1005.6 - 0.0 - - - - - - -
13/06:47pm 24.4 E 6 12 1005.6 - 0.0 - - - - - - -
13/06:30pm 29.4 NNE 6 11 1005.7 - 0.0 - - - - - - -
13/06:00pm 25.3 NE 7 11 1005.6 - 0.0 - - - - - - -
13/05:30pm 25.4 ENE 11 17 1005.7 - 0.0 - - - - - - -
13/05:00pm 24.8 N 7 11 1005.7 - 0.0 - - - - - - -
13/04:30pm 25.0 E 10 14 1005.5 - 0.0 - - - - - - -
13/04:00pm 26.0 E 11 15 1006.0 - 0.0 - - - - - - -
13/03:30pm 26.5 E 9 13 1006.4 - 0.0 - - - - - - -
13/03:00pm 27.2 E 9 14 1006.6 - 0.0 - - - - - - -
13/02:30pm 27.9 E 7 11 1006.9 - 0.0 - - - - - - -
13/02:00pm 30.9 E 6 9 1007.1 - 0.0 - - - - - - -
13/01:30pm 29.1 E 7 9 1007.6 - 0.0 - - - - - - -
13/01:00pm 33.6 WSW 6 11 1007.9 - 0.0 - - - - - - -
13/12:30pm 33.1 NNW 8 12 1008.2 - 0.0 - - - - - - -
13/12:00pm 33.1 N 8 13 1008.4 - 0.0 - - - - - - -
13/11:30am 31.8 NNW 7 12 1008.9 - 0.0 - - - - - - -
13/11:00am 29.8 NNW 8 13 1009.1 - 0.0 - - - - - - -
13/10:30am 28.2 NW 10 15 1009.4 - 0.0 - - - - - - -
13/10:00am 26.7 NNW 9 13 1009.5 - 0.0 - - - - - - -
13/09:30am 26.2 NNW 10 16 1009.5 - 0.0 - - - - - - -
13/09:00am 24.8 NNW 9 13 1009.7 - 0.0 - - - - - - -
13/08:30am 23.3 NNW 8 13 1009.9 - 0.0 - - - - - - -
13/08:00am 22.3 NNW 7 12 1009.9 - 0.0 - - - - - - -
13/07:30am 21.6 NNW 8 14 1009.8 - 0.0 - - - - - - -
13/07:00am 21.1 NNW 8 13 1009.8 - 0.0 - - - - - - -
13/06:30am 20.9 NNW 6 10 1009.8 - 0.0 - - - - - - -
13/06:00am 20.8 N 5 7 1009.5 - 0.0 - - - - - - -
13/05:30am 20.9 NNW 6 9 1009.6 - 0.0 - - - - - - -
13/05:00am 21.0 NNW 5 9 1009.7 - 0.0 - - - - - - -
13/04:30am 21.2 NNW 5 9 1009.8 - 0.0 - - - - - - -
13/04:00am 21.2 N 8 12 1010.0 - 0.0 - - - - - - -
13/03:30am 20.9 N 5 11 1010.5 - 0.0 - - - - - - -
13/03:00am 21.0 NNW 4 6 1010.7 - 0.0 - - - - - - -
13/02:30am 21.4 N 7 10 1011.0 - 0.0 - - - - - - -
13/02:00am 21.7 N 9 11 1011.4 - 0.0 - - - - - - -
13/01:30am 21.5 N 8 12 1011.7 - 0.0 - - - - - - -
13/01:00am 21.6 N 5 8 1012.1 - 0.0 - - - - - - -
13/12:30am 21.8 NNW 5 8 1012.3 - 0.0 - - - - - - -
13/12:00am 22.2 N 7 11 1012.2 - 0.0 - - - - - - -
 
Date/Time
EDT
Temp

°C
Wind Pressure Rain
since 9am
mm
Weather Cloud Vis
km
Sea
Height
m
Swell
Dir
 
Speed
knots
Gust
knots
hPa Trend Height
m
Period
s
Dir
12/11:30pm 22.1 N 6 10 1012.7 - 0.0 - - - - - - -
12/11:00pm 22.4 NNW 6 10 1012.9 - 0.0 - - - - - - -
12/10:30pm 22.5 N 8 13 1013.1 - 0.0 - - - - - - -
12/10:00pm 22.6 N 9 13 1013.2 - 0.0 - - - - - - -
12/09:30pm 22.7 N 6 9 1013.2 - 0.0 - - - - - - -
12/09:00pm 23.0 N 7 11 1013.0 - 0.0 - - - - - - -
12/08:30pm 23.5 N 9 13 1013.0 - 0.0 - - - - - - -
12/08:00pm 24.0 N 8 12 1012.8 - 0.0 - - - - - - -
12/07:30pm 24.8 N 8 12 1012.7 - 0.0 - - - - - - -
12/07:00pm 26.3 N 9 13 1012.4 - 0.0 - - - - - - -
12/06:30pm 25.0 NE 6 12 1012.2 - 0.0 - - - - - - -
12/06:00pm 25.2 ENE 9 13 1012.0 - 0.0 - - - - - - -
12/05:30pm 25.6 E 7 10 1012.2 - 0.0 - - - - - - -
12/05:00pm 25.6 E 8 13 1012.5 - 0.0 - - - - - - -
12/04:30pm 25.4 E 10 14 1012.6 - 0.0 - - - - - - -
12/04:00pm 26.0 E 6 9 1012.9 - 0.0 - - - - - - -
12/03:30pm 25.6 ESE 6 8 1013.1 - 0.0 - - - - - - -
12/03:00pm 25.5 ESE 6 8 1013.3 - 0.0 - - - - - - -
12/02:30pm 24.4 S 7 8 1013.8 - 0.0 - - - - - - -
12/02:00pm 23.9 S 7 9 1014.2 - 0.0 - - - - - - -
12/01:30pm 23.2 S 7 9 1014.5 - 0.0 - - - - - - -
12/01:00pm 22.8 S 9 10 1014.9 - 0.0 - - - - - - -
12/12:30pm 22.8 S 8 10 1015.4 - 0.0 - - - - - - -
12/12:00pm 22.9 S 7 8 1015.6 - 0.0 - - - - - - -
12/11:30am 23.4 SE 5 7 1016.0 - 0.0 - - - - - - -
12/11:00am 23.7 SSE 5 7 1016.2 - 0.0 - - - - - - -
12/10:30am 22.8 SSE 4 6 1016.5 - 0.0 - - - - - - -
12/10:00am 23.0 SSE 3 5 1016.6 - 0.0 - - - - - - -
12/09:30am 22.8 ESE 4 6 1016.8 - 0.0 - - - - - - -
12/09:00am 21.9 NNW 2 4 1016.8 - 0.0 - - - - - - -
12/08:30am 19.9 WNW 4 6 1016.9 - 0.0 - - - - - - -
12/08:00am 19.2 WNW 4 5 1016.7 - 0.0 - - - - - - -
12/07:30am 18.8 WNW 3 5 1016.5 - 0.0 - - - - - - -
12/07:00am 18.4 NW 4 5 1016.2 - 0.0 - - - - - - -
12/06:30am 18.1 WNW 5 6 1016.0 - 0.0 - - - - - - -
12/06:00am 18.0 WNW 4 5 1015.6 - 0.0 - - - - - - -
12/05:30am 17.7 WNW 5 7 1015.5 - 0.0 - - - - - - -
12/05:00am 17.7 NW 5 7 1015.4 - 0.0 - - - - - - -
12/04:30am 17.9 WNW 4 5 1015.4 - 0.0 - - - - - - -
12/04:00am 18.5 WNW 5 6 1015.7 - 0.0 - - - - - - -
12/03:30am 18.6 WNW 5 6 1016.0 - 0.0 - - - - - - -
12/03:00am 18.7 WNW 4 5 1016.0 - 0.0 - - - - - - -
12/02:30am 18.6 W 4 5 1016.2 - 0.0 - - - - - - -
12/02:00am 18.7 W 4 7 1016.4 - 0.0 - - - - - - -
12/01:30am 18.7 WNW 4 5 1016.4 - 0.0 - - - - - - -
12/01:00am 18.9 W 4 5 1016.8 - 0.0 - - - - - - -
12/12:30am 19.1 W 4 5 1017.1 - 0.0 - - - - - - -
12/12:00am 19.2 WNW 4 5 1017.1 - 0.0 - - - - - - -
 
Date/Time
EDT
Temp

°C
Wind Pressure Rain
since 9am
mm
Weather Cloud Vis
km
Sea
Height
m
Swell
Dir
 
Speed
knots
Gust
knots
hPa Trend Height
m
Period
s
Dir
11/11:30pm 19.3 W 4 6 1017.4 - 0.0 - - - - - - -
11/11:00pm 19.5 WNW 4 5 1017.6 - 0.0 - - - - - - -
11/10:30pm 19.5 W 4 6 1017.6 - 0.0 - - - - - - -
11/10:00pm 19.6 W 4 5 1017.4 - 0.0 - - - - - - -
11/09:30pm 19.7 W 3 4 1017.0 - 0.0 - - - - - - -
11/09:00pm 19.9 W 1 3 1016.6 - 0.0 - - - - - - -
11/08:30pm 20.1 WSW 3 4 1016.6 - 0.0 - - - - - - -
11/08:00pm 20.4 W 1 3 1016.1 - 0.0 - - - - - - -
11/07:30pm 20.6 SSW 2 5 1015.9 - 0.0 - - - - - - -
11/07:00pm 20.8 S 4 5 1015.7 - 0.0 - - - - - - -
11/06:30pm 20.7 S 4 6 1015.6 - 0.0 - - - - - - -
11/06:00pm 20.6 S 6 7 1015.4 - 0.0 - - - - - - -
11/05:30pm 20.6 S 7 9 1015.4 - 0.0 - - - - - - -
11/05:00pm 20.6 S 6 9 1015.3 - 0.0 - - - - - - -
11/04:30pm 20.7 S 7 11 1015.1 - 0.0 - - - - - - -
11/04:00pm 20.8 S 8 12 1015.2 - 0.0 - - - - - - -
11/03:30pm 20.9 S 10 14 1015.2 - 0.0 - - - - - - -
11/03:00pm 20.6 S 13 15 1015.2 - 0.0 - - - - - - -

Other Formats:

Comma delimited format used in spreadsheet applications
http://www.bom.gov.au/fwo/IDV60701/IDV60701.94935.axf

JavaScript Object Notation format (JSON) in row-major order
http://www.bom.gov.au/fwo/IDV60701/IDV60701.94935.json